III ĆWIERĆULTRAMARATON BIESZCZADZKI
Maraton Bieszczadzki 2016
Organizator : Fundacja Bieg Rzeźnika
Data : 2016-10-09
Miejsce : Cisna
Dystans : 13 km
Zgłoszonych : 295
Wystartowało : 226
Nie ukończyło : 0
Ukończyło : 226
Na trasie : 0
Pełne wyniki :
Uproszczone :
Klasyfikacje w punktach pomiarowych: Start | 12km | Meta
Klasyfikacje wg kategorii: Wszyscy | Kobiety | Mężczyzni
Klasyfikacja wg czasu brutto. Wyniki nieoficjalne !!!
MscZawodnikNumerKlubMiejscowośćKrajKategoriaMkatK/MDrużynaCzas startuP1_Krzyzowka_z_czerwonym
12km
Czas
netto
13km
Czas
brutto
13km
Różn.Tempo
min/km
Tempo
km/h
         
1GAWROŃSKI Tomasz 1728UMKS NADIR JędrzejówJĘDRZEJÓWMężczyzni1M 100:00:0201:01:5901:06:04.2001:06:06.55 5:0411,8
2KRAWIECKI Mateusz 1781Mężczyzni2M 200:00:0201:05:2701:09:17.8501:09:20.15+00:03:135:1911,3
3DZIEDZIC Mariusz 1754Zabierzów BiegaJERZMANOWICEMężczyzni3M 300:00:0201:05:2601:09:19.8001:09:21.80+00:03:155:1911,3
4FALKOWSKI Krzysztof 1778Mężczyzni4M 400:00:0201:05:2701:10:07.5001:10:09.55+00:04:035:2311,1
5KOCIOŁEK Witold 1672Runonline.pl TeamKRAKÓWMężczyzni5M 500:00:0201:13:5101:18:34.8501:18:37.20+00:12:306:029,9
6MADEJSKI Sławomir 1748Speleoklub ŚwiętokrzyskiKIELCEMężczyzni6M 6Żuki w błocie00:00:0201:14:5701:19:24.5501:19:27.45+00:13:206:069,8
7KORAB Szymon 1633Korzybskie RekinyKĘPICEMężczyzni7M 7Rowery Małgośka00:00:1501:21:4301:26:39.0501:26:54.35+00:20:476:399,0
8PŁACZEK Paweł 1765Mężczyzni8M 800:00:0401:23:0401:28:12.6001:28:17.30+00:22:106:478,8
9MAJ Sławomir 1621Biegający ŚwidnikŚWIDNIKMężczyzni9M 900:00:0301:23:3201:28:23.5001:28:26.60+00:22:206:478,8
10WRÓBEL Kacper 1658GRODZISK MAZOWIECKIMężczyzni10M 1000:00:1501:24:5801:30:16.9001:30:32.70+00:24:266:568,6
11TOMCZAK Przemysław 1543Night RunnersPOZNAŃMężczyzni11M 1100:00:0601:25:1901:30:41.2001:30:47.60+00:24:416:588,6
12MAMEJ Piotr 1796SKLEP BIEGACZA LUBLIN TEAMLUBLINMężczyzni12M 12Lubelska Grupa Triathlonu - Sklep Biegacza Lublin - WW Team00:00:0301:25:5101:31:13.0001:31:16.40+00:25:097:018,6
13KUCHARSKI Paweł 1797Mężczyzni13M 1300:00:0601:25:5301:31:23.2501:31:29.65+00:25:237:018,5
14ZAJDEL Marcin 1759KROSNOMężczyzni14M 1400:00:1101:26:2701:31:31.6001:31:43.20+00:25:367:028,5
15LASKO Łukasz 1557GDYNIAMężczyzni15M 1500:00:0301:27:0501:32:36.8501:32:40.15+00:26:337:078,4
16GOŁUB Marcin 1713WARSZAWAMężczyzni16M 1600:00:0901:27:1101:32:37.9501:32:47.15+00:26:407:078,4
17GŁADYSZ Artur 1798Mężczyzni17M 1700:00:0701:28:0901:33:16.2501:33:24.05+00:27:177:108,4
18PINKOWSKI Dariusz 1516KPP Lubliniec, X-KineticLUBLINIECMężczyzni18M 1800:00:0501:29:4601:35:26.1501:35:31.55+00:29:257:208,2
18PRUSKI Zbigniew 1521DroniowiczkiLUBLINIECMężczyzni19M 1900:00:0501:29:5001:35:26.2501:35:31.55+00:29:257:208,2
20TURLEJ Hubert 1717SULEJÓWEKMężczyzni20M 2000:00:0301:30:1901:35:33.8501:35:37.70+00:29:317:218,2
21SZCZĘCH Adam 1681RYGLICEMężczyzni21M 2100:00:0201:30:1501:35:56.9501:35:59.60+00:29:537:228,1
22ZAJDEL Sławomir 1527JAROSŁAWMężczyzni22M 2200:00:0901:31:0701:36:32.1501:36:41.65+00:30:357:258,1
23GESSLER Łukasz 1546BIESYBOLSZEWOMężczyzni23M 2300:00:0301:31:1701:37:39.3501:37:42.55+00:31:367:308,0
24KACPRZAK Paweł 1779Mężczyzni24M 2400:00:0301:32:0101:37:49.7001:37:52.90+00:31:467:318,0
25DROZD Andrzej 1709GORZÓW WIELKOPOLSKIMężczyzni25M 2500:00:1201:33:1901:38:34.4501:38:47.10+00:32:407:357,9
26RACZYŃSKI Mariusz 1711WARSZAWAMężczyzni26M 2600:00:1301:33:1801:38:38.2001:38:51.70+00:32:457:357,9
27MAJEWSKI Marcin 1538KWW/WWGĄBINMężczyzni27M 2700:00:2101:33:2401:38:41.4501:39:03.25+00:32:567:357,9
28GOŚCINIAK Kamil 1548GĄBINMężczyzni28M 2800:00:2101:33:3401:38:41.9501:39:03.55+00:32:577:357,9
29WODYŃSKI Jacek 1803Mężczyzni29M 2900:00:1101:33:0201:39:02.8001:39:14.15+00:33:077:377,9
30KOTUŁA Jarosław 1786SKLEP BIEGACZA LUBLIN TEAMKRAŚNIKMężczyzni30M 3000:00:1001:33:4801:39:50.7501:40:01.05+00:33:547:407,8
31MAZUR Marek 1550PRZEMYŚL MAROKOPRZEMYŚLMężczyzni31M 3100:00:1101:33:2401:39:51.4001:40:02.75+00:33:567:407,8
32SKUBIDA Marcin 1774Mężczyzni32M 3200:00:0601:34:0401:39:57.6001:40:04.30+00:33:577:417,8
33USYK Mariusz 1578LESKOMężczyzni33M 3300:00:1201:34:0001:40:07.4501:40:19.55+00:34:137:427,8
34ZABURKO Mateusz 1792TOMASZÓW LUBELSKIMężczyzni34M 3400:00:1101:34:5501:40:28.4001:40:39.45+00:34:327:437,8
35KLEPACKI Maciej 1799Mężczyzni35M 3500:00:1001:35:0801:41:17.2001:41:28.00+00:35:217:477,7
36BOROWIEC Mariusz 1605Bracia.BLUBLINMężczyzni36M 3600:00:1501:35:5101:41:48.7501:42:04.20+00:35:577:497,7
37HANASIEWICZ Paweł 1556PRZEMYŚLMężczyzni37M 3700:00:1001:36:3301:41:57.2501:42:07.25+00:36:007:507,7
38BOREK Paweł 1582KRAKÓWMężczyzni38M 3800:00:0901:36:3201:41:58.3501:42:07.55+00:36:017:507,6
39KOTAS Adam 1695Fast & PerfectKATOWICEMężczyzni39M 3900:00:0601:36:2301:42:14.1501:42:20.20+00:36:137:517,6
40FRANKOWSKI Piotr 1690WARSZAWAMężczyzni40M 4000:00:1301:36:2301:42:13.5001:42:27.05+00:36:207:517,6
41PAPE Martin 1613WITCWARSAWMężczyzni41M 4100:00:0701:36:1401:42:21.4001:42:28.65+00:36:227:527,6
42DOMŻAŁA Konrad 1686WARSZAWAMężczyzni42M 4200:00:1701:36:1801:42:12.4001:42:30.30+00:36:237:517,6
43PRUSZKOWSKI Mariusz 1533Chełm BiegaCHEŁMMężczyzni43M 4300:00:1501:36:1801:42:17.3501:42:33.05+00:36:267:527,6
44JAROCKI Michał 1707WARSZAWAMężczyzni44M 4400:00:0801:36:2901:42:25.1501:42:33.95+00:36:277:527,6
45MAJCHROWSKI Jacek 1563BBL TarnobrzegTARNOBRZEGMężczyzni45M 4500:00:0501:36:3601:42:29.0501:42:34.35+00:36:277:537,6
46PLACHA Piotr 1752CKB TarnobrzegTARNOBRZEGMężczyzni46M 4600:00:0601:36:3401:42:28.1501:42:34.50+00:36:277:527,6
47LIPIŃSKI Tomasz 1706WARSZAWAMężczyzni47M 4700:00:1001:36:3001:42:40.1501:42:50.60+00:36:447:537,6
48STEPANCZENKO Rafał 1726BIAŁYSTOK BIEGABIAŁYSTOKMężczyzni48M 4800:00:0701:37:2101:42:53.9501:43:01.45+00:36:547:547,6
49BRENKUS Piotr 1622Bieg po zdrójJAWORZEMężczyzni49M 4900:00:2201:37:5501:43:48.7001:44:10.90+00:38:047:597,5
50BACZA Piotr 1553Przemyśl - MarokoPRZEMYŚLMężczyzni50M 5000:00:1101:38:0201:44:08.5501:44:19.60+00:38:138:007,5
51MAJEWSKI Wojciech 1539GĄBINMężczyzni51M 5100:00:2001:38:0101:44:04.7501:44:25.25+00:38:188:007,5
52SZYBIAK Maciej 1793Agona W&MMężczyzni52M 5200:00:0901:38:5101:44:48.7001:44:58.40+00:38:518:037,4
53KANTOR Darek 1569RUN_HELPERSIBODUSZYNMężczyzni53M 53Lubelska Grupa Triathlonu - Sklep Biegacza Lublin - WW Team00:00:1401:38:4201:44:45.4001:44:59.55+00:38:538:037,4
54BIZUB Jakub 1704SKIERNIEWICEMężczyzni54M 5400:00:2001:40:0601:45:55.4501:46:15.65+00:40:098:087,4
55POLOZYNSKI Andrzej 1645Zacisze Night RunnersWARSZAWAMężczyzni55M 5500:00:1901:40:2601:46:23.6001:46:43.00+00:40:368:117,3
56BODZIOCH Grzegorz 1674Gorlicka Grupa BiegowaKOBYLANKAMężczyzni56M 5600:00:2101:40:3901:47:07.4001:47:28.70+00:41:228:147,3
57BOROWIEC Arkadiusz 1531Bracia.B/Chełm BiegaCHEŁMMężczyzni57M 5700:00:1501:40:4601:47:19.2501:47:34.25+00:41:278:157,3
58BAHIR Said 1549PRZEMYSLMężczyzni58M 5800:00:1101:41:2701:48:03.2001:48:14.85+00:42:088:187,2
59SANECKI Robert 1710Sprint GorzyceGORZYCEMężczyzni59M 5900:00:0701:41:4601:48:52.1501:48:59.40+00:42:528:227,2
60TOPOROWSKI Mariusz 1602LUBLINMężczyzni60M 60Lubelska Grupa Triathlonu - Sklep Biegacza Lublin - WW Team00:00:1401:42:2101:48:48.1501:49:02.95+00:42:568:227,2
61TOWAROWSKI Andrzej 1669WARSZAWAMężczyzni61M 6100:00:1901:40:5201:48:54.1001:49:13.15+00:43:068:227,2
62STACH Robert 1566TARNAWA DOLNAMężczyzni62M 62Pozytywnie Zabiegani Sanok00:00:1201:42:3501:49:05.7001:49:17.85+00:43:118:237,2
63WRÓBEL Bartłomiej 1785Mężczyzni63M 6300:00:0601:42:4001:49:25.1001:49:31.50+00:43:248:257,1
64KRAL Sebastian 1757JAWORZNOMężczyzni64M 6400:00:2401:44:3701:51:44.1501:52:08.30+00:46:018:357,0
65BIZIOR Marcin 1775TVP TEAMWARSZAWAMężczyzni65M 6500:00:1301:45:1301:51:56.0501:52:09.65+00:46:038:367,0
66SZMAJDOWICZ Paweł 1687Fachdom TeamKONSTANCIN JEZIORNAMężczyzni66M 6600:00:1701:45:4201:51:56.1501:52:13.50+00:46:068:367,0
67ZEMŁA Piotr 1580GLIWICEMężczyzni67M 6700:00:1101:45:2101:52:57.5001:53:09.45+00:47:028:416,9
68CHWISTEK Artur 1518ZABRZEMężczyzni68M 6800:00:1801:46:2401:53:20.8001:53:39.60+00:47:338:436,9
69SUWEZDA Jacek 1767Mężczyzni69M 6900:00:1601:47:1201:53:52.5501:54:09.20+00:48:028:456,8
70DRAPAŁA Jan 1801KrokodyleMężczyzni70M 7000:00:2701:47:4201:53:47.1001:54:14.20+00:48:078:456,9
71STRZĘPKA Krzysztof 1800Mężczyzni71M 7100:00:2601:47:4201:53:47.7001:54:14.30+00:48:078:456,9
72WOŁOSZCZAK Łukasz 17006. KilometrBYDGOSZCZMężczyzni72M 726. Kilometr00:00:2401:47:0701:54:05.8001:54:30.35+00:48:238:466,8
73RUDNICKI Piotr 1565WARSZAWAMężczyzni73M 7300:00:2301:47:5401:55:08.4001:55:31.75+00:49:258:516,8
74KARDASZ Jacek 1761ATTYLA ZAMOŚĆZAMOŚĆMężczyzni74M 7400:00:1001:49:5801:56:14.9001:56:25.65+00:50:198:566,7
75MYGA Michał 1746HeartlessKATOWICEMężczyzni75M 7500:00:2701:49:4401:56:10.5501:56:38.35+00:50:318:566,7
76KOWALCZYK Mariusz 1729ŻÓŁWINMężczyzni76M 7600:00:2501:49:1701:56:57.3001:57:22.50+00:51:158:596,7
77PAWLUKIEWICZ Michał 1632Rowery MałgośkaPOZNAŃMężczyzni77M 77Rowery Małgośka00:00:1501:49:5101:57:52.0001:58:07.45+00:52:009:046,6
78WIEJAK Piotr 16346. kilometrBYDGOSZCZMężczyzni78M 786. Kilometr00:00:2301:51:5401:58:59.0501:59:22.85+00:53:169:096,6
79LUZAR Andrzej 1763Mężczyzni79M 7900:00:1801:52:2601:59:50.3502:00:08.85+00:54:029:136,5
80NIEDZIAŁEK Robert 1750LUBLINMężczyzni80M 8000:00:2401:53:4102:00:38.8002:01:03.35+00:54:569:166,5
81TURKO Szymon 1702RADYMNOMężczyzni81M 8100:00:1501:55:5302:02:50.1002:03:05.70+00:56:599:266,4
82TERLECKI Józef 1743GRUSZEWNIAMężczyzni82M 8200:00:2701:53:3702:02:44.2502:03:11.35+00:57:049:266,4
83DANILUK Andrzej 1646Zacisze Night RunnersWARSZAWAMężczyzni83M 8300:00:1901:55:1702:03:00.4502:03:20.20+00:57:139:276,3
84KRAWECKI Arkadiusz 1655SANOKMężczyzni84M 8400:00:2301:56:2702:03:15.8002:03:39.05+00:57:329:286,3
85LIEBAN Jarosław 1699BIESYGOŚCICINOMężczyzni85M 8500:00:0401:55:4802:03:54.3002:03:58.45+00:57:519:316,3
86WRONA Tomek 1676parkrun KonstancinKONSTANCIN- JEZIORNAMężczyzni86M 8600:00:2001:56:3202:03:49.6002:04:10.05+00:58:039:316,3
87TOMASZEWSKI Adam 1619RADYMNOMężczyzni87M 8700:00:1601:56:0802:04:01.9002:04:18.25+00:58:119:326,3
88PŁODZIEŃ Jarosław 1776Mężczyzni88M 8800:00:1401:56:1702:04:46.6002:05:01.55+00:58:559:356,3
89BILSKI Marek 1720WARSZAWAMężczyzni89M 8900:00:3001:56:5002:04:55.8002:05:25.90+00:59:199:366,2
90SIDOR Jerzy 1642RZESZÓWMężczyzni90M 9000:00:2001:57:5202:05:31.8002:05:52.75+00:59:469:396,2
91ŚWISTOWSKI Sławomir 1749LUBLINMężczyzni91M 9100:00:2401:58:0302:06:21.8502:06:45.95+01:00:399:436,2
92BAJAK Mirosław 1731KRAKÓWMężczyzni92M 9200:00:1702:01:4002:08:41.1002:08:59.05+01:02:529:546,1
93WŁODARCZAK Karol 1653TKD Szakal Jeżyce RunnersSILNOWOMężczyzni93M 93TKD Szakal Jeżyce Runners00:00:1102:03:1102:10:41.8502:10:53.70+01:04:4710:036,0
94SZYMAŃSKI Mariusz 1772MKB DreptakMIŃSK MAZOWIECKIMężczyzni94M 9400:00:1002:02:4902:11:11.7502:11:22.10+01:05:1510:055,9
95TOTOŃ Mariusz 1769MoczymordyCZĘSTOCHOWAMężczyzni95M 9500:00:1002:03:1502:11:12.2002:11:22.30+01:05:1510:055,9
96KUPIEC Dariusz 1770MKB DreptakMIŃSK MAZOWIECKIMężczyzni96M 9600:00:0902:02:0702:11:12.4502:11:22.35+01:05:1510:055,9
97SUPEŁ Marcin 1649KOŁO BIEGAKOŁOMężczyzni97M 9700:00:0802:03:5302:12:21.6502:12:30.50+01:06:2310:105,9
98POWALSKI Kamil 1771Mężczyzni98M 9800:00:1302:07:5202:15:57.4502:16:10.50+01:10:0310:275,7
99DAWID Mirosław 1788Mężczyzni99M 9900:00:0502:08:2502:16:39.5002:16:44.70+01:10:3810:305,7
100BARAN Jakub 1570KB WartkoPOZNAŃMężczyzni100M 10000:00:1602:09:0902:17:14.8502:17:31.35+01:11:2410:335,7
101PIETRZAK Maciej 1760WARSZAWA - STARA MIŁOSNAMężczyzni101M 10100:00:1602:09:2402:17:17.3002:17:33.35+01:11:2610:335,7
101ŚPIEWAK Aleksander 1630WARSZAWAMężczyzni102M 10200:00:1502:09:2602:17:17.7002:17:33.35+01:11:2610:335,7
103WOŹNIAK Jędrzej 1585Vadain Running ClubGRUDZIĄDZMężczyzni103M 10300:00:0202:05:3502:18:11.1002:18:13.75+01:12:0710:375,6
104SOT Lucjan 1536a niech to szlak biegiem na szlakWETLINAMężczyzni104M 10400:00:0602:14:0202:23:27.1502:23:33.30+01:17:2611:025,4
105ZUBCZYŃSKI Hubert 1664WARSZAWAMężczyzni105M 10500:00:0002:25:16.5002:25:16.50+01:19:0911:105,4
106ZIELONKA Paweł 1789Mężczyzni106M 10600:00:2302:16:5902:26:10.5502:26:33.75+01:20:2711:145,3
107JAROCKI Leszek 1722LEGIONOWOMężczyzni107M 10700:00:1602:18:0602:26:28.8502:26:45.80+01:20:3911:165,3
108WĄS Andrzej 1703ZIELONKIMężczyzni108M 10800:00:2002:18:1402:27:25.9502:27:46.25+01:21:3911:205,3
109MOJEK Michał 1559WARSZAWAMężczyzni109M 10900:00:0302:21:3602:32:19.1002:32:22.95+01:26:1611:435,1
110WANTOŁA Michał 1233BUCZKOWICEMężczyzni110M 11000:00:2502:22:2702:32:05.1502:32:30.65+01:26:2411:415,1
111KULKA Paweł 1740WARSZAWAMężczyzni111M 11100:00:1702:28:2102:39:31.7502:39:49.10+01:33:4212:164,9
112JANKOWSKI Andrzej 1584MK TEAM SPORT w WIELKIM MIEŚcieKATOWICEMężczyzni112M 11200:00:2202:33:1802:44:50.6002:45:13.25+01:39:0612:404,7
113PARYS Piotr 1766Mężczyzni113M 11300:00:2002:38:3702:48:31.6002:48:51.90+01:42:4512:574,6
114TADLA Mateusz 1616Stado pędzących węży ogrodowychLUBLINMężczyzni114M 11400:00:2102:42:0002:53:34.5502:53:56.40+01:47:4913:214,5
115PANCZENKO Kamil 1595Weź wyluzujLUBLINMężczyzni115M 11500:00:2202:46:3202:58:59.7502:59:21.95+01:53:1513:464,4
116MIRECKI Jan 1535WARSZAWAMężczyzni116M 11600:00:1203:13:3203:27:12.2503:27:25.00+02:21:1815:563,8
117HRYSZKO Jarosław 1561RKS JaninaWROCŁAWMężczyzni117M 11700:00:2903:13:2003:27:44.5503:28:14.35+02:22:0715:583,8
Znaleziono 117 wynik(ów)